sensor_id;sensor_type;location;lat;lon;timestamp;P1;durP1;ratioP1;P2;durP2;ratioP2
48951;SDS011;34758;42.148;24.744;2022-10-20T00:00:23;7.35;;;4.65;;
48951;SDS011;34758;42.148;24.744;2022-10-20T00:02:50;9.02;;;5.68;;
48951;SDS011;34758;42.148;24.744;2022-10-20T00:05:17;11.75;;;5.90;;
48951;SDS011;34758;42.148;24.744;2022-10-20T00:07:44;9.43;;;6.38;;
48951;SDS011;34758;42.148;24.744;2022-10-20T00:10:11;8.48;;;5.63;;
48951;SDS011;34758;42.148;24.744;2022-10-20T00:12:40;7.22;;;5.68;;
48951;SDS011;34758;42.148;24.744;2022-10-20T00:15:07;11.38;;;6.57;;
48951;SDS011;34758;42.148;24.744;2022-10-20T00:17:34;6.50;;;5.70;;
48951;SDS011;34758;42.148;24.744;2022-10-20T00:20:01;7.93;;;5.47;;
48951;SDS011;34758;42.148;24.744;2022-10-20T00:22:30;8.68;;;6.35;;
48951;SDS011;34758;42.148;24.744;2022-10-20T00:24:57;8.18;;;6.22;;
48951;SDS011;34758;42.148;24.744;2022-10-20T00:27:24;13.25;;;7.13;;
48951;SDS011;34758;42.148;24.744;2022-10-20T00:29:52;7.40;;;6.63;;
48951;SDS011;34758;42.148;24.744;2022-10-20T00:32:19;12.05;;;6.53;;
48951;SDS011;34758;42.148;24.744;2022-10-20T00:34:46;8.23;;;5.53;;
48951;SDS011;34758;42.148;24.744;2022-10-20T00:37:13;9.23;;;6.55;;
48951;SDS011;34758;42.148;24.744;2022-10-20T00:39:41;8.93;;;6.32;;
48951;SDS011;34758;42.148;24.744;2022-10-20T00:42:09;11.43;;;7.20;;
48951;SDS011;34758;42.148;24.744;2022-10-20T00:44:50;9.48;;;6.28;;
48951;SDS011;34758;42.148;24.744;2022-10-20T00:47:23;10.27;;;6.38;;
48951;SDS011;34758;42.148;24.744;2022-10-20T00:49:57;11.02;;;7.10;;
48951;SDS011;34758;42.148;24.744;2022-10-20T00:52:31;8.25;;;6.90;;
48951;SDS011;34758;42.148;24.744;2022-10-20T00:54:59;11.18;;;7.32;;
48951;SDS011;34758;42.148;24.744;2022-10-20T00:57:27;8.90;;;7.00;;
48951;SDS011;34758;42.148;24.744;2022-10-20T00:59:57;7.57;;;6.80;;
48951;SDS011;34758;42.148;24.744;2022-10-20T01:02:24;10.55;;;7.35;;
48951;SDS011;34758;42.148;24.744;2022-10-20T01:04:51;9.70;;;7.15;;
48951;SDS011;34758;42.148;24.744;2022-10-20T01:07:18;8.48;;;6.97;;
48951;SDS011;34758;42.148;24.744;2022-10-20T01:09:45;12.05;;;5.78;;
48951;SDS011;34758;42.148;24.744;2022-10-20T01:12:16;10.75;;;7.50;;
48951;SDS011;34758;42.148;24.744;2022-10-20T01:14:49;8.98;;;6.95;;
48951;SDS011;34758;42.148;24.744;2022-10-20T01:17:25;11.68;;;7.45;;
48951;SDS011;34758;42.148;24.744;2022-10-20T01:20:02;11.20;;;8.38;;
48951;SDS011;34758;42.148;24.744;2022-10-20T01:22:46;11.27;;;7.25;;
48951;SDS011;34758;42.148;24.744;2022-10-20T01:25:25;10.60;;;7.40;;
48951;SDS011;34758;42.148;24.744;2022-10-20T01:28:01;11.55;;;7.82;;
48951;SDS011;34758;42.148;24.744;2022-10-20T01:30:29;13.70;;;8.07;;
48951;SDS011;34758;42.148;24.744;2022-10-20T01:33:04;11.02;;;8.65;;
48951;SDS011;34758;42.148;24.744;2022-10-20T01:35:42;9.98;;;8.18;;
48951;SDS011;34758;42.148;24.744;2022-10-20T01:38:18;9.43;;;8.10;;
48951;SDS011;34758;42.148;24.744;2022-10-20T01:40:49;11.88;;;8.35;;
48951;SDS011;34758;42.148;24.744;2022-10-20T01:43:19;16.15;;;8.70;;
48951;SDS011;34758;42.148;24.744;2022-10-20T01:45:48;10.65;;;8.63;;
48951;SDS011;34758;42.148;24.744;2022-10-20T01:48:16;11.48;;;8.50;;
48951;SDS011;34758;42.148;24.744;2022-10-20T01:50:48;15.07;;;8.93;;
48951;SDS011;34758;42.148;24.744;2022-10-20T01:53:16;9.52;;;8.48;;
48951;SDS011;34758;42.148;24.744;2022-10-20T01:55:43;12.75;;;8.50;;
48951;SDS011;34758;42.148;24.744;2022-10-20T01:58:15;10.63;;;8.38;;
48951;SDS011;34758;42.148;24.744;2022-10-20T02:00:50;12.30;;;9.02;;
48951;SDS011;34758;42.148;24.744;2022-10-20T02:03:23;12.13;;;8.95;;
48951;SDS011;34758;42.148;24.744;2022-10-20T02:06:03;12.88;;;8.82;;
48951;SDS011;34758;42.148;24.744;2022-10-20T02:08:39;11.85;;;9.20;;
48951;SDS011;34758;42.148;24.744;2022-10-20T02:11:10;14.52;;;9.65;;
48951;SDS011;34758;42.148;24.744;2022-10-20T02:13:43;15.15;;;9.65;;
48951;SDS011;34758;42.148;24.744;2022-10-20T02:16:12;13.30;;;8.88;;
48951;SDS011;34758;42.148;24.744;2022-10-20T02:18:44;13.35;;;10.52;;
48951;SDS011;34758;42.148;24.744;2022-10-20T02:21:12;16.45;;;9.80;;
48951;SDS011;34758;42.148;24.744;2022-10-20T02:23:39;11.70;;;10.10;;
48951;SDS011;34758;42.148;24.744;2022-10-20T02:26:10;11.38;;;9.35;;
48951;SDS011;34758;42.148;24.744;2022-10-20T02:28:40;11.27;;;9.02;;
48951;SDS011;34758;42.148;24.744;2022-10-20T02:31:11;13.65;;;10.27;;
48951;SDS011;34758;42.148;24.744;2022-10-20T02:33:38;13.15;;;10.48;;
48951;SDS011;34758;42.148;24.744;2022-10-20T02:36:06;16.30;;;10.02;;
48951;SDS011;34758;42.148;24.744;2022-10-20T02:38:39;11.50;;;9.57;;
48951;SDS011;34758;42.148;24.744;2022-10-20T02:41:05;10.80;;;9.45;;
48951;SDS011;34758;42.148;24.744;2022-10-20T02:43:32;14.25;;;9.60;;
48951;SDS011;34758;42.148;24.744;2022-10-20T02:45:59;11.20;;;9.40;;
48951;SDS011;34758;42.148;24.744;2022-10-20T02:48:27;12.00;;;9.65;;
48951;SDS011;34758;42.148;24.744;2022-10-20T02:50:54;15.73;;;10.30;;
48951;SDS011;34758;42.148;24.744;2022-10-20T02:53:21;24.15;;;11.45;;
48951;SDS011;34758;42.148;24.744;2022-10-20T02:55:48;15.63;;;10.32;;
48951;SDS011;34758;42.148;24.744;2022-10-20T02:58:15;10.95;;;9.75;;
48951;SDS011;34758;42.148;24.744;2022-10-20T03:00:42;14.88;;;10.57;;
48951;SDS011;34758;42.148;24.744;2022-10-20T03:03:09;11.50;;;9.25;;
48951;SDS011;34758;42.148;24.744;2022-10-20T03:05:39;15.23;;;10.93;;
48951;SDS011;34758;42.148;24.744;2022-10-20T03:08:09;12.50;;;10.23;;
48951;SDS011;34758;42.148;24.744;2022-10-20T03:10:35;14.85;;;11.27;;
48951;SDS011;34758;42.148;24.744;2022-10-20T03:13:03;13.10;;;10.52;;
48951;SDS011;34758;42.148;24.744;2022-10-20T03:15:30;12.63;;;10.15;;
48951;SDS011;34758;42.148;24.744;2022-10-20T03:17:57;14.70;;;10.00;;
48951;SDS011;34758;42.148;24.744;2022-10-20T03:20:24;13.20;;;10.00;;
48951;SDS011;34758;42.148;24.744;2022-10-20T03:22:53;12.40;;;9.77;;
48951;SDS011;34758;42.148;24.744;2022-10-20T03:25:20;13.70;;;11.60;;
48951;SDS011;34758;42.148;24.744;2022-10-20T03:27:47;10.82;;;9.68;;
48951;SDS011;34758;42.148;24.744;2022-10-20T03:30:16;15.45;;;11.43;;
48951;SDS011;34758;42.148;24.744;2022-10-20T03:32:43;13.38;;;10.25;;
48951;SDS011;34758;42.148;24.744;2022-10-20T03:35:09;14.25;;;10.23;;
48951;SDS011;34758;42.148;24.744;2022-10-20T03:37:37;12.43;;;10.25;;
48951;SDS011;34758;42.148;24.744;2022-10-20T03:40:06;17.73;;;11.25;;
48951;SDS011;34758;42.148;24.744;2022-10-20T03:42:34;15.55;;;10.43;;
48951;SDS011;34758;42.148;24.744;2022-10-20T03:45:01;12.52;;;10.77;;
48951;SDS011;34758;42.148;24.744;2022-10-20T03:47:28;16.23;;;11.25;;
48951;SDS011;34758;42.148;24.744;2022-10-20T03:49:55;11.40;;;9.93;;
48951;SDS011;34758;42.148;24.744;2022-10-20T03:52:22;14.93;;;10.43;;
48951;SDS011;34758;42.148;24.744;2022-10-20T03:54:49;13.73;;;10.27;;
48951;SDS011;34758;42.148;24.744;2022-10-20T03:57:17;14.77;;;11.30;;
48951;SDS011;34758;42.148;24.744;2022-10-20T03:59:44;14.25;;;10.20;;
48951;SDS011;34758;42.148;24.744;2022-10-20T04:02:13;11.77;;;10.48;;
48951;SDS011;34758;42.148;24.744;2022-10-20T04:04:49;11.02;;;9.30;;
48951;SDS011;34758;42.148;24.744;2022-10-20T04:07:16;12.10;;;9.88;;
48951;SDS011;34758;42.148;24.744;2022-10-20T04:09:44;11.93;;;10.07;;
48951;SDS011;34758;42.148;24.744;2022-10-20T04:12:10;11.00;;;9.73;;
48951;SDS011;34758;42.148;24.744;2022-10-20T04:14:39;11.13;;;9.60;;
48951;SDS011;34758;42.148;24.744;2022-10-20T04:17:06;11.27;;;8.88;;
48951;SDS011;34758;42.148;24.744;2022-10-20T04:19:34;11.85;;;9.18;;
48951;SDS011;34758;42.148;24.744;2022-10-20T04:22:01;13.13;;;9.60;;
48951;SDS011;34758;42.148;24.744;2022-10-20T04:24:28;11.57;;;9.50;;
48951;SDS011;34758;42.148;24.744;2022-10-20T04:26:55;14.70;;;10.60;;
48951;SDS011;34758;42.148;24.744;2022-10-20T04:29:22;12.38;;;9.38;;
48951;SDS011;34758;42.148;24.744;2022-10-20T04:31:51;11.43;;;9.50;;
48951;SDS011;34758;42.148;24.744;2022-10-20T04:34:18;12.30;;;10.00;;
48951;SDS011;34758;42.148;24.744;2022-10-20T04:36:46;10.38;;;8.82;;
48951;SDS011;34758;42.148;24.744;2022-10-20T04:39:13;10.70;;;9.02;;
48951;SDS011;34758;42.148;24.744;2022-10-20T04:41:40;10.48;;;8.60;;
48951;SDS011;34758;42.148;24.744;2022-10-20T04:44:07;10.10;;;9.07;;
48951;SDS011;34758;42.148;24.744;2022-10-20T04:46:34;11.95;;;8.23;;
48951;SDS011;34758;42.148;24.744;2022-10-20T04:49:03;9.55;;;8.40;;
48951;SDS011;34758;42.148;24.744;2022-10-20T04:51:30;14.73;;;8.20;;
48951;SDS011;34758;42.148;24.744;2022-10-20T04:53:57;11.35;;;8.43;;
48951;SDS011;34758;42.148;24.744;2022-10-20T04:56:26;10.82;;;8.18;;
48951;SDS011;34758;42.148;24.744;2022-10-20T04:58:55;12.77;;;7.72;;
48951;SDS011;34758;42.148;24.744;2022-10-20T05:01:23;11.13;;;8.00;;
48951;SDS011;34758;42.148;24.744;2022-10-20T05:03:51;8.15;;;6.78;;
48951;SDS011;34758;42.148;24.744;2022-10-20T05:06:20;9.80;;;8.73;;
48951;SDS011;34758;42.148;24.744;2022-10-20T05:08:52;10.25;;;8.48;;
48951;SDS011;34758;42.148;24.744;2022-10-20T05:11:21;10.40;;;8.50;;
48951;SDS011;34758;42.148;24.744;2022-10-20T05:13:49;8.52;;;7.00;;
48951;SDS011;34758;42.148;24.744;2022-10-20T05:16:16;14.65;;;8.35;;
48951;SDS011;34758;42.148;24.744;2022-10-20T05:18:44;11.27;;;7.80;;
48951;SDS011;34758;42.148;24.744;2022-10-20T05:21:12;11.38;;;8.00;;
48951;SDS011;34758;42.148;24.744;2022-10-20T05:23:43;10.52;;;8.82;;
48951;SDS011;34758;42.148;24.744;2022-10-20T05:26:10;11.98;;;7.43;;
48951;SDS011;34758;42.148;24.744;2022-10-20T05:28:40;10.63;;;7.28;;
48951;SDS011;34758;42.148;24.744;2022-10-20T05:31:09;11.82;;;8.13;;
48951;SDS011;34758;42.148;24.744;2022-10-20T05:33:37;9.32;;;7.57;;
48951;SDS011;34758;42.148;24.744;2022-10-20T05:36:07;10.02;;;6.97;;
48951;SDS011;34758;42.148;24.744;2022-10-20T05:38:35;10.75;;;8.07;;
48951;SDS011;34758;42.148;24.744;2022-10-20T05:41:07;9.10;;;7.45;;
48951;SDS011;34758;42.148;24.744;2022-10-20T05:43:36;9.50;;;8.32;;
48951;SDS011;34758;42.148;24.744;2022-10-20T05:46:03;12.02;;;7.53;;
48951;SDS011;34758;42.148;24.744;2022-10-20T05:48:30;11.52;;;7.60;;
48951;SDS011;34758;42.148;24.744;2022-10-20T05:51:05;11.25;;;7.45;;
48951;SDS011;34758;42.148;24.744;2022-10-20T05:53:33;11.82;;;8.30;;
48951;SDS011;34758;42.148;24.744;2022-10-20T05:56:03;10.10;;;6.78;;
48951;SDS011;34758;42.148;24.744;2022-10-20T05:58:32;20.85;;;8.00;;
48951;SDS011;34758;42.148;24.744;2022-10-20T06:01:06;9.30;;;7.30;;
48951;SDS011;34758;42.148;24.744;2022-10-20T06:03:34;11.18;;;7.43;;
48951;SDS011;34758;42.148;24.744;2022-10-20T06:06:01;14.02;;;7.82;;
48951;SDS011;34758;42.148;24.744;2022-10-20T06:08:29;10.95;;;6.63;;
48951;SDS011;34758;42.148;24.744;2022-10-20T06:11:00;14.63;;;7.10;;
48951;SDS011;34758;42.148;24.744;2022-10-20T06:13:32;8.48;;;7.22;;
48951;SDS011;34758;42.148;24.744;2022-10-20T06:16:03;19.55;;;9.15;;
48951;SDS011;34758;42.148;24.744;2022-10-20T06:18:30;10.30;;;7.53;;
48951;SDS011;34758;42.148;24.744;2022-10-20T06:20:59;11.85;;;7.40;;
48951;SDS011;34758;42.148;24.744;2022-10-20T06:23:26;11.65;;;6.60;;
48951;SDS011;34758;42.148;24.744;2022-10-20T06:25:54;7.95;;;6.13;;
48951;SDS011;34758;42.148;24.744;2022-10-20T06:28:23;9.82;;;7.22;;
48951;SDS011;34758;42.148;24.744;2022-10-20T06:30:51;7.13;;;6.43;;
48951;SDS011;34758;42.148;24.744;2022-10-20T06:33:18;10.13;;;6.57;;
48951;SDS011;34758;42.148;24.744;2022-10-20T06:35:46;8.55;;;6.38;;
48951;SDS011;34758;42.148;24.744;2022-10-20T06:38:13;12.25;;;6.95;;
48951;SDS011;34758;42.148;24.744;2022-10-20T06:40:40;13.38;;;6.03;;
48951;SDS011;34758;42.148;24.744;2022-10-20T06:43:06;9.95;;;6.68;;
48951;SDS011;34758;42.148;24.744;2022-10-20T06:45:33;8.30;;;5.93;;
48951;SDS011;34758;42.148;24.744;2022-10-20T06:48:02;9.00;;;6.25;;
48951;SDS011;34758;42.148;24.744;2022-10-20T06:50:29;10.60;;;6.10;;
48951;SDS011;34758;42.148;24.744;2022-10-20T06:52:58;13.25;;;6.20;;
48951;SDS011;34758;42.148;24.744;2022-10-20T06:55:25;8.35;;;5.85;;
48951;SDS011;34758;42.148;24.744;2022-10-20T06:57:52;8.10;;;6.20;;
48951;SDS011;34758;42.148;24.744;2022-10-20T07:00:19;7.93;;;5.65;;
48951;SDS011;34758;42.148;24.744;2022-10-20T07:02:46;8.80;;;5.57;;
48951;SDS011;34758;42.148;24.744;2022-10-20T07:05:15;8.48;;;5.97;;
48951;SDS011;34758;42.148;24.744;2022-10-20T07:07:42;11.57;;;6.80;;
48951;SDS011;34758;42.148;24.744;2022-10-20T07:10:09;10.38;;;5.80;;
48951;SDS011;34758;42.148;24.744;2022-10-20T07:12:36;12.80;;;7.10;;
48951;SDS011;34758;42.148;24.744;2022-10-20T07:15:03;9.27;;;6.18;;
48951;SDS011;34758;42.148;24.744;2022-10-20T07:17:32;12.52;;;6.63;;
48951;SDS011;34758;42.148;24.744;2022-10-20T07:19:59;8.90;;;5.80;;
48951;SDS011;34758;42.148;24.744;2022-10-20T07:22:29;12.43;;;6.85;;
48951;SDS011;34758;42.148;24.744;2022-10-20T07:24:57;11.15;;;6.78;;
48951;SDS011;34758;42.148;24.744;2022-10-20T07:27:30;9.40;;;5.50;;
48951;SDS011;34758;42.148;24.744;2022-10-20T07:29:57;7.80;;;6.22;;
48951;SDS011;34758;42.148;24.744;2022-10-20T07:32:24;6.65;;;5.20;;
48951;SDS011;34758;42.148;24.744;2022-10-20T07:34:52;11.38;;;5.82;;
48951;SDS011;34758;42.148;24.744;2022-10-20T07:37:20;8.77;;;5.97;;
48951;SDS011;34758;42.148;24.744;2022-10-20T07:39:48;8.40;;;5.90;;
48951;SDS011;34758;42.148;24.744;2022-10-20T07:42:15;5.97;;;5.18;;
48951;SDS011;34758;42.148;24.744;2022-10-20T07:44:43;7.30;;;5.32;;
48951;SDS011;34758;42.148;24.744;2022-10-20T07:47:10;7.70;;;5.25;;
48951;SDS011;34758;42.148;24.744;2022-10-20T07:49:36;7.30;;;5.47;;
48951;SDS011;34758;42.148;24.744;2022-10-20T07:52:04;8.00;;;5.10;;
48951;SDS011;34758;42.148;24.744;2022-10-20T07:54:31;9.18;;;5.50;;
48951;SDS011;34758;42.148;24.744;2022-10-20T07:57:00;8.10;;;5.15;;
48951;SDS011;34758;42.148;24.744;2022-10-20T07:59:26;8.02;;;5.70;;
48951;SDS011;34758;42.148;24.744;2022-10-20T08:01:54;6.35;;;5.55;;
48951;SDS011;34758;42.148;24.744;2022-10-20T08:04:21;5.28;;;4.78;;
48951;SDS011;34758;42.148;24.744;2022-10-20T08:06:49;10.73;;;5.10;;
48951;SDS011;34758;42.148;24.744;2022-10-20T08:09:16;7.10;;;4.80;;
48951;SDS011;34758;42.148;24.744;2022-10-20T08:11:43;7.03;;;5.10;;
48951;SDS011;34758;42.148;24.744;2022-10-20T08:14:11;5.22;;;4.35;;
48951;SDS011;34758;42.148;24.744;2022-10-20T08:16:38;6.82;;;4.47;;
48951;SDS011;34758;42.148;24.744;2022-10-20T08:19:05;5.00;;;4.38;;
48951;SDS011;34758;42.148;24.744;2022-10-20T08:21:32;6.32;;;4.50;;
48951;SDS011;34758;42.148;24.744;2022-10-20T08:24:00;7.38;;;4.85;;
48951;SDS011;34758;42.148;24.744;2022-10-20T08:26:28;8.18;;;4.20;;
48951;SDS011;34758;42.148;24.744;2022-10-20T08:28:55;7.05;;;4.78;;
48951;SDS011;34758;42.148;24.744;2022-10-20T08:31:23;6.40;;;4.43;;
48951;SDS011;34758;42.148;24.744;2022-10-20T08:33:51;6.60;;;4.50;;
48951;SDS011;34758;42.148;24.744;2022-10-20T08:36:18;6.93;;;4.50;;
48951;SDS011;34758;42.148;24.744;2022-10-20T08:38:46;7.60;;;4.07;;
48951;SDS011;34758;42.148;24.744;2022-10-20T08:41:15;8.02;;;3.72;;
48951;SDS011;34758;42.148;24.744;2022-10-20T08:43:43;7.97;;;4.30;;
48951;SDS011;34758;42.148;24.744;2022-10-20T08:46:12;5.13;;;4.10;;
48951;SDS011;34758;42.148;24.744;2022-10-20T08:48:42;6.18;;;4.10;;
48951;SDS011;34758;42.148;24.744;2022-10-20T08:51:11;4.95;;;3.78;;
48951;SDS011;34758;42.148;24.744;2022-10-20T08:53:42;7.32;;;4.13;;
48951;SDS011;34758;42.148;24.744;2022-10-20T08:56:10;8.48;;;4.20;;
48951;SDS011;34758;42.148;24.744;2022-10-20T08:58:40;5.85;;;3.80;;
48951;SDS011;34758;42.148;24.744;2022-10-20T09:01:13;5.68;;;4.55;;
48951;SDS011;34758;42.148;24.744;2022-10-20T09:03:45;7.13;;;3.80;;
48951;SDS011;34758;42.148;24.744;2022-10-20T09:06:16;4.70;;;3.17;;
48951;SDS011;34758;42.148;24.744;2022-10-20T09:08:44;7.30;;;3.95;;
48951;SDS011;34758;42.148;24.744;2022-10-20T09:11:12;5.10;;;3.95;;
48951;SDS011;34758;42.148;24.744;2022-10-20T09:13:41;6.47;;;3.72;;
48951;SDS011;34758;42.148;24.744;2022-10-20T09:16:10;6.45;;;3.92;;
48951;SDS011;34758;42.148;24.744;2022-10-20T09:18:38;4.27;;;3.87;;
48951;SDS011;34758;42.148;24.744;2022-10-20T09:21:07;4.50;;;3.00;;
48951;SDS011;34758;42.148;24.744;2022-10-20T09:23:39;6.15;;;3.90;;
48951;SDS011;34758;42.148;24.744;2022-10-20T09:26:09;4.65;;;3.60;;
48951;SDS011;34758;42.148;24.744;2022-10-20T09:28:37;4.32;;;3.60;;
48951;SDS011;34758;42.148;24.744;2022-10-20T09:31:04;6.22;;;3.55;;
48951;SDS011;34758;42.148;24.744;2022-10-20T09:36:15;5.25;;;4.22;;
48951;SDS011;34758;42.148;24.744;2022-10-20T09:38:43;6.15;;;3.80;;
48951;SDS011;34758;42.148;24.744;2022-10-20T09:41:15;5.72;;;3.97;;
48951;SDS011;34758;42.148;24.744;2022-10-20T09:43:46;4.33;;;3.67;;
48951;SDS011;34758;42.148;24.744;2022-10-20T09:46:16;6.18;;;3.70;;
48951;SDS011;34758;42.148;24.744;2022-10-20T09:48:44;6.90;;;3.28;;
48951;SDS011;34758;42.148;24.744;2022-10-20T09:51:12;4.00;;;3.28;;
48951;SDS011;34758;42.148;24.744;2022-10-20T09:53:48;7.50;;;3.95;;
48951;SDS011;34758;42.148;24.744;2022-10-20T09:56:27;5.22;;;3.42;;
48951;SDS011;34758;42.148;24.744;2022-10-20T09:58:56;4.68;;;3.30;;
48951;SDS011;34758;42.148;24.744;2022-10-20T10:01:24;4.18;;;2.83;;
48951;SDS011;34758;42.148;24.744;2022-10-20T10:03:51;4.25;;;3.25;;
48951;SDS011;34758;42.148;24.744;2022-10-20T10:06:27;6.82;;;3.50;;
48951;SDS011;34758;42.148;24.744;2022-10-20T10:08:56;3.25;;;2.95;;
48951;SDS011;34758;42.148;24.744;2022-10-20T10:11:25;5.00;;;3.40;;
48951;SDS011;34758;42.148;24.744;2022-10-20T10:13:57;4.68;;;3.17;;
48951;SDS011;34758;42.148;24.744;2022-10-20T10:16:24;3.00;;;2.78;;
48951;SDS011;34758;42.148;24.744;2022-10-20T10:18:56;4.32;;;3.22;;
48951;SDS011;34758;42.148;24.744;2022-10-20T10:21:27;4.93;;;3.15;;
48951;SDS011;34758;42.148;24.744;2022-10-20T10:23:56;7.45;;;3.30;;
48951;SDS011;34758;42.148;24.744;2022-10-20T10:26:41;5.30;;;3.30;;
48951;SDS011;34758;42.148;24.744;2022-10-20T10:29:16;4.38;;;2.97;;
48951;SDS011;34758;42.148;24.744;2022-10-20T10:31:45;4.18;;;2.72;;
48951;SDS011;34758;42.148;24.744;2022-10-20T10:34:26;3.80;;;3.13;;
48951;SDS011;34758;42.148;24.744;2022-10-20T10:37:02;4.32;;;3.35;;
48951;SDS011;34758;42.148;24.744;2022-10-20T10:39:29;3.20;;;2.90;;
48951;SDS011;34758;42.148;24.744;2022-10-20T10:42:02;4.88;;;3.30;;
48951;SDS011;34758;42.148;24.744;2022-10-20T10:44:45;3.40;;;3.10;;
48951;SDS011;34758;42.148;24.744;2022-10-20T10:47:25;4.10;;;3.47;;
48951;SDS011;34758;42.148;24.744;2022-10-20T10:50:04;3.83;;;3.10;;
48951;SDS011;34758;42.148;24.744;2022-10-20T10:52:49;3.88;;;3.00;;
48951;SDS011;34758;42.148;24.744;2022-10-20T10:55:24;3.50;;;3.03;;
48951;SDS011;34758;42.148;24.744;2022-10-20T10:57:54;3.55;;;2.60;;
48951;SDS011;34758;42.148;24.744;2022-10-20T11:00:32;6.10;;;3.10;;
48951;SDS011;34758;42.148;24.744;2022-10-20T11:03:10;7.47;;;2.78;;
48951;SDS011;34758;42.148;24.744;2022-10-20T11:05:52;3.08;;;2.78;;
48951;SDS011;34758;42.148;24.744;2022-10-20T11:08:27;3.33;;;2.80;;
48951;SDS011;34758;42.148;24.744;2022-10-20T11:11:01;5.65;;;3.20;;
48951;SDS011;34758;42.148;24.744;2022-10-20T11:13:36;4.32;;;3.03;;
48951;SDS011;34758;42.148;24.744;2022-10-20T11:16:18;4.82;;;2.90;;
48951;SDS011;34758;42.148;24.744;2022-10-20T11:18:55;3.85;;;2.50;;
48951;SDS011;34758;42.148;24.744;2022-10-20T11:21:27;6.72;;;3.22;;
48951;SDS011;34758;42.148;24.744;2022-10-20T11:26:51;3.75;;;2.75;;
48951;SDS011;34758;42.148;24.744;2022-10-20T11:29:22;4.80;;;2.70;;
48951;SDS011;34758;42.148;24.744;2022-10-20T11:31:54;8.07;;;2.50;;
48951;SDS011;34758;42.148;24.744;2022-10-20T11:34:29;4.35;;;2.60;;
48951;SDS011;34758;42.148;24.744;2022-10-20T11:37:01;2.85;;;2.05;;
48951;SDS011;34758;42.148;24.744;2022-10-20T11:39:35;3.90;;;2.60;;
48951;SDS011;34758;42.148;24.744;2022-10-20T11:42:10;6.97;;;3.00;;
48951;SDS011;34758;42.148;24.744;2022-10-20T11:44:44;2.58;;;2.28;;
48951;SDS011;34758;42.148;24.744;2022-10-20T11:47:14;3.65;;;2.45;;
48951;SDS011;34758;42.148;24.744;2022-10-20T11:49:43;4.15;;;2.40;;
48951;SDS011;34758;42.148;24.744;2022-10-20T11:52:24;2.33;;;2.10;;
48951;SDS011;34758;42.148;24.744;2022-10-20T11:55:22;2.40;;;2.20;;
48951;SDS011;34758;42.148;24.744;2022-10-20T11:58:01;3.70;;;2.65;;
48951;SDS011;34758;42.148;24.744;2022-10-20T12:00:43;3.28;;;2.67;;
48951;SDS011;34758;42.148;24.744;2022-10-20T12:03:37;2.60;;;2.38;;
48951;SDS011;34758;42.148;24.744;2022-10-20T12:06:32;3.35;;;3.05;;
48951;SDS011;34758;42.148;24.744;2022-10-20T12:09:16;4.40;;;2.25;;
48951;SDS011;34758;42.148;24.744;2022-10-20T12:11:53;2.30;;;2.10;;
48951;SDS011;34758;42.148;24.744;2022-10-20T12:14:23;3.10;;;2.40;;
48951;SDS011;34758;42.148;24.744;2022-10-20T12:17:03;4.68;;;2.58;;
48951;SDS011;34758;42.148;24.744;2022-10-20T12:19:38;3.55;;;2.17;;
48951;SDS011;34758;42.148;24.744;2022-10-20T12:22:05;3.10;;;2.20;;
48951;SDS011;34758;42.148;24.744;2022-10-20T12:25:18;3.35;;;2.47;;
48951;SDS011;34758;42.148;24.744;2022-10-20T12:31:04;4.82;;;2.58;;
48951;SDS011;34758;42.148;24.744;2022-10-20T12:33:38;3.78;;;2.28;;
48951;SDS011;34758;42.148;24.744;2022-10-20T12:36:28;3.45;;;2.28;;
48951;SDS011;34758;42.148;24.744;2022-10-20T12:39:16;3.25;;;2.33;;
48951;SDS011;34758;42.148;24.744;2022-10-20T12:41:53;2.60;;;2.40;;
48951;SDS011;34758;42.148;24.744;2022-10-20T12:44:22;2.72;;;2.17;;
48951;SDS011;34758;42.148;24.744;2022-10-20T12:46:54;5.85;;;3.88;;
48951;SDS011;34758;42.148;24.744;2022-10-20T12:49:23;3.20;;;2.90;;
48951;SDS011;34758;42.148;24.744;2022-10-20T12:51:54;6.20;;;2.10;;
48951;SDS011;34758;42.148;24.744;2022-10-20T12:54:22;3.55;;;2.75;;
48951;SDS011;34758;42.148;24.744;2022-10-20T12:56:50;6.50;;;3.15;;
48951;SDS011;34758;42.148;24.744;2022-10-20T12:59:34;5.60;;;2.85;;
48951;SDS011;34758;42.148;24.744;2022-10-20T13:02:29;3.92;;;2.42;;
48951;SDS011;34758;42.148;24.744;2022-10-20T13:04:58;4.20;;;3.03;;
48951;SDS011;34758;42.148;24.744;2022-10-20T13:10:30;5.10;;;2.35;;
48951;SDS011;34758;42.148;24.744;2022-10-20T13:16:08;4.13;;;2.95;;
48951;SDS011;34758;42.148;24.744;2022-10-20T13:18:45;5.13;;;2.80;;
48951;SDS011;34758;42.148;24.744;2022-10-20T13:21:19;3.80;;;2.55;;
48951;SDS011;34758;42.148;24.744;2022-10-20T13:24:00;3.03;;;2.63;;
48951;SDS011;34758;42.148;24.744;2022-10-20T13:26:29;4.87;;;3.00;;
48951;SDS011;34758;42.148;24.744;2022-10-20T13:28:58;5.13;;;2.80;;
48951;SDS011;34758;42.148;24.744;2022-10-20T13:31:27;4.40;;;2.60;;
48951;SDS011;34758;42.148;24.744;2022-10-20T13:34:02;4.25;;;2.50;;
48951;SDS011;34758;42.148;24.744;2022-10-20T13:36:36;3.60;;;2.90;;
48951;SDS011;34758;42.148;24.744;2022-10-20T13:39:14;4.22;;;2.60;;
48951;SDS011;34758;42.148;24.744;2022-10-20T13:41:48;4.25;;;2.30;;
48951;SDS011;34758;42.148;24.744;2022-10-20T13:44:22;5.32;;;2.95;;
48951;SDS011;34758;42.148;24.744;2022-10-20T13:46:57;5.38;;;2.92;;
48951;SDS011;34758;42.148;24.744;2022-10-20T13:52:16;4.35;;;2.40;;
48951;SDS011;34758;42.148;24.744;2022-10-20T13:54:46;5.05;;;2.60;;
48951;SDS011;34758;42.148;24.744;2022-10-20T13:57:21;3.50;;;2.15;;
48951;SDS011;34758;42.148;24.744;2022-10-20T13:59:55;3.85;;;2.47;;
48951;SDS011;34758;42.148;24.744;2022-10-20T14:02:24;3.22;;;2.50;;
48951;SDS011;34758;42.148;24.744;2022-10-20T14:05:05;5.32;;;2.88;;
48951;SDS011;34758;42.148;24.744;2022-10-20T14:07:36;3.40;;;2.37;;
48951;SDS011;34758;42.148;24.744;2022-10-20T14:10:05;2.47;;;2.08;;
48951;SDS011;34758;42.148;24.744;2022-10-20T14:12:33;2.47;;;2.28;;
48951;SDS011;34758;42.148;24.744;2022-10-20T14:15:07;3.45;;;2.22;;
48951;SDS011;34758;42.148;24.744;2022-10-20T14:17:35;4.97;;;2.70;;
48951;SDS011;34758;42.148;24.744;2022-10-20T14:20:14;5.82;;;2.58;;
48951;SDS011;34758;42.148;24.744;2022-10-20T14:22:45;3.38;;;2.55;;
48951;SDS011;34758;42.148;24.744;2022-10-20T14:25:13;4.07;;;2.33;;
48951;SDS011;34758;42.148;24.744;2022-10-20T14:27:42;5.78;;;2.80;;
48951;SDS011;34758;42.148;24.744;2022-10-20T14:30:13;2.58;;;2.38;;
48951;SDS011;34758;42.148;24.744;2022-10-20T14:32:42;8.07;;;2.95;;
48951;SDS011;34758;42.148;24.744;2022-10-20T14:35:14;2.97;;;2.60;;
48951;SDS011;34758;42.148;24.744;2022-10-20T14:37:49;5.07;;;2.72;;
48951;SDS011;34758;42.148;24.744;2022-10-20T14:40:18;6.70;;;2.55;;
48951;SDS011;34758;42.148;24.744;2022-10-20T14:42:46;6.63;;;2.42;;
48951;SDS011;34758;42.148;24.744;2022-10-20T14:45:19;4.80;;;2.40;;
48951;SDS011;34758;42.148;24.744;2022-10-20T14:47:54;3.17;;;2.45;;
48951;SDS011;34758;42.148;24.744;2022-10-20T14:50:27;5.05;;;2.50;;
48951;SDS011;34758;42.148;24.744;2022-10-20T14:55:52;3.65;;;2.60;;
48951;SDS011;34758;42.148;24.744;2022-10-20T14:58:30;6.78;;;2.83;;
48951;SDS011;34758;42.148;24.744;2022-10-20T15:01:16;4.15;;;2.80;;
48951;SDS011;34758;42.148;24.744;2022-10-20T15:04:01;5.78;;;3.45;;
48951;SDS011;34758;42.148;24.744;2022-10-20T15:06:32;6.40;;;2.92;;
48951;SDS011;34758;42.148;24.744;2022-10-20T15:09:01;8.75;;;2.90;;